createdAt,value
2023-04-26T00:00:01.715Z,98484.00
2023-04-26T00:02:29.635Z,98479.60
2023-04-26T00:04:58.937Z,98483.40
2023-04-26T00:07:28.571Z,98485.40
2023-04-26T00:09:56.999Z,98483.00
2023-04-26T00:12:24.755Z,98485.60
2023-04-26T00:14:52.771Z,98485.20
2023-04-26T00:17:20.707Z,98494.60
2023-04-26T00:19:48.534Z,98490.60
2023-04-26T00:22:16.349Z,98491.00
2023-04-26T00:24:44.280Z,98491.00
2023-04-26T00:27:11.954Z,98489.00
2023-04-26T00:29:39.651Z,98489.40
2023-04-26T00:32:07.434Z,98488.80
2023-04-26T00:34:37.581Z,98493.40
2023-04-26T00:37:05.992Z,98487.80
2023-04-26T00:39:33.789Z,98494.80
2023-04-26T00:42:01.937Z,98494.40
2023-04-26T00:44:29.656Z,98496.40
2023-04-26T00:46:57.536Z,98501.60
2023-04-26T00:49:26.538Z,98497.60
2023-04-26T00:51:55.354Z,98498.40
2023-04-26T00:54:24.252Z,98492.40
2023-04-26T00:56:53.241Z,98497.60
2023-04-26T00:59:21.345Z,98494.20
2023-04-26T01:01:49.506Z,98496.20
2023-04-26T01:04:18.223Z,98500.60
2023-04-26T01:06:47.087Z,98497.20
2023-04-26T01:09:16.126Z,98497.80
2023-04-26T01:11:44.805Z,98499.40
2023-04-26T01:14:14.673Z,98494.60
2023-04-26T01:16:42.447Z,98493.40
2023-04-26T01:19:15.146Z,98498.00
2023-04-26T01:21:43.362Z,98493.80
2023-04-26T01:24:13.625Z,98496.40
2023-04-26T01:26:48.331Z,98498.20
2023-04-26T01:29:21.593Z,98497.60
2023-04-26T01:31:49.344Z,98495.00
2023-04-26T01:34:17.050Z,98500.80
2023-04-26T01:36:44.725Z,98504.00
2023-04-26T01:39:12.725Z,98504.20
2023-04-26T01:41:40.545Z,98507.20
2023-04-26T01:44:08.263Z,98505.60
2023-04-26T01:46:36.049Z,98509.00
2023-04-26T01:49:03.747Z,98510.00
2023-04-26T01:51:31.723Z,98508.60
2023-04-26T01:53:59.418Z,98508.40
2023-04-26T01:56:27.085Z,98506.20
2023-04-26T01:58:56.506Z,98510.40
2023-04-26T02:01:24.455Z,98515.40
2023-04-26T02:03:53.046Z,98512.40
2023-04-26T02:06:21.836Z,98513.40
2023-04-26T02:08:49.739Z,98507.20
2023-04-26T02:11:17.490Z,98510.60
2023-04-26T02:13:45.349Z,98515.00
2023-04-26T02:16:13.234Z,98515.60
2023-04-26T02:18:41.649Z,98516.40
2023-04-26T02:21:11.968Z,98512.80
2023-04-26T02:23:39.600Z,98513.60
2023-04-26T02:26:07.248Z,98514.20
2023-04-26T02:28:34.976Z,98518.80
2023-04-26T02:31:03.409Z,98519.20
2023-04-26T02:33:31.288Z,98518.80
2023-04-26T02:35:59.254Z,98520.60
2023-04-26T02:38:27.407Z,98519.60
2023-04-26T02:41:03.486Z,98519.40
2023-04-26T02:43:31.156Z,98523.00
2023-04-26T02:46:00.928Z,98520.00
2023-04-26T02:48:28.729Z,98522.80
2023-04-26T02:50:57.188Z,98522.20
2023-04-26T02:53:24.958Z,98524.00
2023-04-26T02:55:52.622Z,98523.80
2023-04-26T02:58:21.352Z,98520.00
2023-04-26T03:00:49.434Z,98523.20
2023-04-26T03:03:17.419Z,98520.80
2023-04-26T03:05:46.355Z,98522.00
2023-04-26T03:08:14.525Z,98523.60
2023-04-26T03:10:44.205Z,98519.80
2023-04-26T03:13:12.042Z,98521.60
2023-04-26T03:15:46.087Z,98519.80
2023-04-26T03:18:13.833Z,98527.60
2023-04-26T03:20:43.150Z,98524.60
2023-04-26T03:23:10.865Z,98536.40
2023-04-26T03:25:38.619Z,98528.60
2023-04-26T03:28:06.577Z,98534.40
2023-04-26T03:30:34.453Z,98531.20
2023-04-26T03:33:02.242Z,98534.20
2023-04-26T03:35:29.945Z,98537.60
2023-04-26T03:37:58.669Z,98535.80
2023-04-26T03:40:26.764Z,98543.00
2023-04-26T03:42:54.468Z,98542.20
2023-04-26T03:45:22.076Z,98549.20
2023-04-26T03:47:49.754Z,98546.60
2023-04-26T03:50:17.770Z,98550.00
2023-04-26T03:52:45.854Z,98550.20
2023-04-26T03:55:13.858Z,98557.00
2023-04-26T03:57:41.605Z,98561.60
2023-04-26T04:00:11.858Z,98567.80
2023-04-26T04:02:41.462Z,98565.20
2023-04-26T04:05:10.262Z,98566.60
2023-04-26T04:07:38.124Z,98570.00
2023-04-26T04:10:07.379Z,98571.00
2023-04-26T04:12:35.015Z,98576.20
2023-04-26T04:15:03.050Z,98583.60
2023-04-26T04:17:30.812Z,98585.00
2023-04-26T04:19:58.542Z,98583.20
2023-04-26T04:22:26.234Z,98584.20
2023-04-26T04:24:54.444Z,98592.40
2023-04-26T04:27:22.771Z,98594.60
2023-04-26T04:29:50.517Z,98589.80
2023-04-26T04:32:18.857Z,98596.80
2023-04-26T04:34:48.331Z,98597.60
2023-04-26T04:37:18.202Z,98598.20
2023-04-26T04:39:46.262Z,98603.00
2023-04-26T04:42:13.963Z,98610.80
2023-04-26T04:44:42.211Z,98607.20
2023-04-26T04:47:09.855Z,98614.00
2023-04-26T04:49:38.343Z,98614.60
2023-04-26T04:52:06.741Z,98612.80
2023-04-26T04:54:34.648Z,98620.20
2023-04-26T04:57:03.078Z,98616.20
2023-04-26T04:59:31.556Z,98619.20
2023-04-26T05:01:59.317Z,98623.40
2023-04-26T05:04:27.324Z,98628.60
2023-04-26T05:06:55.474Z,98625.00
2023-04-26T05:09:23.223Z,98628.80
2023-04-26T05:11:50.964Z,98625.40
2023-04-26T05:14:18.598Z,98630.60
2023-04-26T05:16:46.362Z,98635.20
2023-04-26T05:19:14.535Z,98632.60
2023-04-26T05:21:42.402Z,98638.60
2023-04-26T05:24:10.194Z,98640.40
2023-04-26T05:26:37.978Z,98640.00
2023-04-26T05:29:05.676Z,98646.80
2023-04-26T05:31:33.469Z,98644.80
2023-04-26T05:34:01.180Z,98645.20
2023-04-26T05:36:30.121Z,98642.80
2023-04-26T05:38:57.878Z,98644.60
2023-04-26T05:41:25.524Z,98641.40
2023-04-26T05:43:53.400Z,98643.40
2023-04-26T05:46:21.604Z,98650.40
2023-04-26T05:48:49.645Z,98651.80
2023-04-26T05:51:17.442Z,98643.80
2023-04-26T05:53:45.103Z,98649.40
2023-04-26T05:56:12.890Z,98646.00
2023-04-26T05:58:40.628Z,98649.60
2023-04-26T06:01:08.950Z,98646.80
2023-04-26T06:03:37.394Z,98650.80
2023-04-26T06:06:05.769Z,98648.60
2023-04-26T06:08:34.519Z,98653.20
2023-04-26T06:11:02.176Z,98653.80
2023-04-26T06:13:29.848Z,98653.20
2023-04-26T06:15:59.855Z,98647.40
2023-04-26T06:18:27.516Z,98654.60
2023-04-26T06:20:55.207Z,98658.60
2023-04-26T06:23:22.954Z,98660.40
2023-04-26T06:25:50.628Z,98662.40
2023-04-26T06:28:18.377Z,98660.20
2023-04-26T06:30:46.185Z,98664.00
2023-04-26T06:33:13.998Z,98657.80
2023-04-26T06:35:42.474Z,98650.00
2023-04-26T06:38:12.708Z,98657.80
2023-04-26T06:40:40.449Z,98652.60
2023-04-26T06:43:08.154Z,98656.60
2023-04-26T06:45:36.190Z,98656.40
2023-04-26T06:48:05.381Z,98641.80
2023-04-26T06:50:33.609Z,98643.40
2023-04-26T06:53:01.509Z,98646.00
2023-04-26T06:55:29.126Z,98648.20
2023-04-26T06:57:57.166Z,98647.60
2023-04-26T07:00:24.873Z,98646.20
2023-04-26T07:02:52.625Z,98648.60
2023-04-26T07:05:20.844Z,98652.60
2023-04-26T07:07:50.514Z,98647.20
2023-04-26T07:10:18.637Z,98651.00
2023-04-26T07:12:46.512Z,98649.00
2023-04-26T07:15:14.434Z,98653.60
2023-04-26T07:17:42.180Z,98653.60
2023-04-26T07:20:10.520Z,98652.80
2023-04-26T07:22:39.097Z,98649.20
2023-04-26T07:25:08.402Z,98658.40
2023-04-26T07:27:36.205Z,98654.00
2023-04-26T07:30:05.514Z,98656.60
2023-04-26T07:32:33.197Z,98654.40
2023-04-26T07:35:01.243Z,98655.00
2023-04-26T07:37:28.890Z,98660.00
2023-04-26T07:39:56.840Z,98657.20
2023-04-26T07:42:24.596Z,98659.60
2023-04-26T07:44:52.273Z,98659.00
2023-04-26T07:47:19.962Z,98664.80
2023-04-26T07:49:53.560Z,98666.80
2023-04-26T07:52:21.245Z,98670.80
2023-04-26T07:54:48.930Z,98664.40
2023-04-26T07:57:16.609Z,98678.80
2023-04-26T07:59:44.376Z,98675.20
2023-04-26T08:02:12.380Z,98673.40
2023-04-26T08:04:48.978Z,98671.60
2023-04-26T08:07:17.212Z,98673.80
2023-04-26T08:09:45.662Z,98681.60
2023-04-26T08:12:13.323Z,98684.60
2023-04-26T08:14:41.135Z,98683.60
2023-04-26T08:17:12.296Z,98680.40
2023-04-26T08:19:41.338Z,98668.00
2023-04-26T08:22:09.020Z,98671.00
2023-04-26T08:24:36.807Z,98676.60
2023-04-26T08:27:04.597Z,98669.00
2023-04-26T08:29:32.235Z,98665.20
2023-04-26T08:32:00.136Z,98677.80
2023-04-26T08:34:29.493Z,98673.40
2023-04-26T08:36:57.419Z,98672.00
2023-04-26T08:39:25.255Z,98671.20
2023-04-26T08:42:05.826Z,98676.40
2023-04-26T08:44:36.642Z,98679.20
2023-04-26T08:47:14.003Z,98676.20
2023-04-26T08:49:45.537Z,98674.20
2023-04-26T08:52:17.292Z,98665.00
2023-04-26T08:54:47.073Z,98676.00
2023-04-26T08:57:15.532Z,98686.00
2023-04-26T08:59:44.438Z,98678.00
2023-04-26T09:02:18.792Z,98681.20
2023-04-26T09:04:48.826Z,98679.40
2023-04-26T09:07:32.055Z,98680.60
2023-04-26T09:10:01.070Z,98680.80
2023-04-26T09:12:28.868Z,98679.20
2023-04-26T09:14:56.660Z,98682.40
2023-04-26T09:17:29.110Z,98687.20
2023-04-26T09:19:57.754Z,98684.00
2023-04-26T09:22:34.772Z,98695.00
2023-04-26T09:25:07.275Z,98702.80
2023-04-26T09:27:44.434Z,98702.20
2023-04-26T09:30:18.784Z,98696.20
2023-04-26T09:32:57.329Z,98700.00
2023-04-26T09:35:39.826Z,98693.00
2023-04-26T09:38:14.733Z,98689.60
2023-04-26T09:40:50.445Z,98691.00
2023-04-26T09:43:22.582Z,98689.60
2023-04-26T09:45:56.893Z,98696.40
2023-04-26T09:48:34.752Z,98695.00
2023-04-26T09:51:14.726Z,98694.60
2023-04-26T09:53:48.112Z,98697.60
2023-04-26T09:56:21.095Z,98695.60
2023-04-26T09:59:01.291Z,98689.20
2023-04-26T10:01:30.071Z,98693.80
2023-04-26T10:04:01.822Z,98699.60
2023-04-26T10:06:30.433Z,98703.20
2023-04-26T10:08:58.233Z,98695.40
2023-04-26T10:11:27.079Z,98696.80
2023-04-26T10:13:55.574Z,98688.20
2023-04-26T10:16:24.471Z,98692.60
2023-04-26T10:18:52.714Z,98702.60
2023-04-26T10:21:31.990Z,98702.60
2023-04-26T10:24:01.143Z,98699.00
2023-04-26T10:27:05.292Z,98695.60
2023-04-26T10:29:54.864Z,98704.20
2023-04-26T10:32:24.017Z,98701.60
2023-04-26T10:35:21.888Z,98704.20
2023-04-26T10:38:01.370Z,98693.80
2023-04-26T10:40:35.447Z,98695.00
2023-04-26T10:43:12.117Z,98698.60
2023-04-26T10:45:45.324Z,98707.60
2023-04-26T10:48:18.970Z,98709.00
2023-04-26T10:51:02.053Z,98709.40
2023-04-26T10:53:53.625Z,98700.80
2023-04-26T10:56:24.479Z,98713.80
2023-04-26T10:59:33.190Z,98710.60
2023-04-26T11:02:01.177Z,98707.20
2023-04-26T11:04:54.804Z,98711.60
2023-04-26T11:07:39.470Z,98704.60
2023-04-26T11:10:22.464Z,98702.40
2023-04-26T11:13:03.139Z,98698.00
2023-04-26T11:15:32.057Z,98702.20
2023-04-26T11:18:05.233Z,98704.60
2023-04-26T11:20:34.638Z,98708.40
2023-04-26T11:23:02.787Z,98715.40
2023-04-26T11:25:30.649Z,98717.20
2023-04-26T11:28:03.485Z,98721.60
2023-04-26T11:30:33.348Z,98719.60
2023-04-26T11:33:06.439Z,98716.20
2023-04-26T11:35:39.118Z,98717.20
2023-04-26T11:38:07.642Z,98714.40
2023-04-26T11:40:37.396Z,98713.60
2023-04-26T11:43:06.500Z,98713.20
2023-04-26T11:45:36.426Z,98710.80
2023-04-26T11:48:08.720Z,98718.60
2023-04-26T11:50:38.509Z,98719.40
2023-04-26T11:53:08.731Z,98716.20
2023-04-26T11:55:36.781Z,98723.80
2023-04-26T11:58:14.006Z,98714.00
2023-04-26T12:01:04.383Z,98716.80
2023-04-26T12:03:35.631Z,98709.40
2023-04-26T12:06:05.003Z,98706.00
2023-04-26T12:08:34.052Z,98706.80
2023-04-26T12:11:03.436Z,98710.40
2023-04-26T12:13:32.336Z,98719.40
2023-04-26T12:16:00.438Z,98714.80
2023-04-26T12:18:32.795Z,98716.00
2023-04-26T12:21:01.927Z,98717.20
2023-04-26T12:23:39.599Z,98717.40
2023-04-26T12:26:10.800Z,98713.80
2023-04-26T12:28:38.508Z,98713.20
2023-04-26T12:31:07.325Z,98712.80
2023-04-26T12:33:36.547Z,98712.40
2023-04-26T12:36:12.552Z,98717.00
2023-04-26T12:38:40.578Z,98703.00
2023-04-26T12:41:08.554Z,98716.20
2023-04-26T12:43:36.824Z,98718.00
2023-04-26T12:46:04.759Z,98715.20
2023-04-26T12:48:32.714Z,98727.80
2023-04-26T12:51:00.402Z,98732.00
2023-04-26T12:53:28.190Z,98735.20
2023-04-26T12:55:56.441Z,98743.60
2023-04-26T12:58:24.148Z,98745.40
2023-04-26T13:00:51.865Z,98748.40
2023-04-26T13:03:19.779Z,98751.60
2023-04-26T13:05:47.850Z,98748.40
2023-04-26T13:08:16.145Z,98748.60
2023-04-26T13:10:44.082Z,98743.80
2023-04-26T13:13:11.800Z,98744.00
2023-04-26T13:15:40.145Z,98742.80
2023-04-26T13:18:08.088Z,98738.00
2023-04-26T13:20:36.328Z,98736.20
2023-04-26T13:23:04.260Z,98733.60
2023-04-26T13:25:32.189Z,98738.00
2023-04-26T13:28:00.006Z,98743.20
2023-04-26T13:30:27.956Z,98738.40
2023-04-26T13:32:57.482Z,98743.20
2023-04-26T13:35:26.508Z,98745.20
2023-04-26T13:37:54.214Z,98756.00
2023-04-26T13:40:22.906Z,98758.00
2023-04-26T13:42:50.753Z,98760.20
2023-04-26T13:45:19.418Z,98763.00
2023-04-26T13:47:47.304Z,98764.80
2023-04-26T13:50:15.094Z,98759.40
2023-04-26T13:52:42.756Z,98757.00
2023-04-26T13:55:10.529Z,98758.20
2023-04-26T13:57:38.466Z,98752.60
2023-04-26T14:00:08.277Z,98764.80
2023-04-26T14:02:36.159Z,98765.00
2023-04-26T14:05:05.231Z,98770.60
2023-04-26T14:07:33.300Z,98778.00
2023-04-26T14:10:01.391Z,98776.60
2023-04-26T14:12:30.111Z,98778.20
2023-04-26T14:14:58.112Z,98784.00
2023-04-26T14:17:28.065Z,98784.80
2023-04-26T14:19:56.269Z,98786.60
2023-04-26T14:22:25.962Z,98791.60
2023-04-26T14:24:53.819Z,98788.20
2023-04-26T14:27:21.889Z,98788.40
2023-04-26T14:29:49.539Z,98797.20
2023-04-26T14:32:17.194Z,98797.80
2023-04-26T14:34:44.881Z,98800.20
2023-04-26T14:37:12.639Z,98799.00
2023-04-26T14:39:40.728Z,98801.80
2023-04-26T14:42:08.488Z,98803.40
2023-04-26T14:44:36.526Z,98804.60
2023-04-26T14:47:04.282Z,98804.60
2023-04-26T14:49:32.045Z,98804.00
2023-04-26T14:51:59.746Z,98806.80
2023-04-26T14:54:27.357Z,98806.00
2023-04-26T14:56:55.079Z,98798.40
2023-04-26T14:59:22.846Z,98803.80
2023-04-26T15:01:53.354Z,98799.80
2023-04-26T15:04:21.654Z,98804.20
2023-04-26T15:06:49.596Z,98795.80
2023-04-26T15:09:17.531Z,98798.80
2023-04-26T15:11:45.213Z,98797.40
2023-04-26T15:14:12.786Z,98798.40
2023-04-26T15:16:40.810Z,98805.40
2023-04-26T15:19:08.472Z,98804.80
2023-04-26T15:21:37.030Z,98802.20
2023-04-26T15:24:05.399Z,98806.40
2023-04-26T15:26:33.208Z,98801.00
2023-04-26T15:29:00.946Z,98809.80
2023-04-26T15:31:28.727Z,98810.80
2023-04-26T15:33:56.876Z,98813.20
2023-04-26T15:36:24.512Z,98817.40
2023-04-26T15:38:52.878Z,98822.40
2023-04-26T15:41:20.553Z,98827.60
2023-04-26T15:43:55.332Z,98823.20
2023-04-26T15:46:23.223Z,98825.80
2023-04-26T15:48:51.202Z,98822.80
2023-04-26T15:51:19.017Z,98827.80
2023-04-26T15:53:46.840Z,98824.40
2023-04-26T15:56:18.142Z,98821.40
2023-04-26T15:58:47.521Z,98825.20
2023-04-26T16:01:15.664Z,98827.40
2023-04-26T16:03:47.295Z,98829.20
2023-04-26T16:06:16.105Z,98833.00
2023-04-26T16:08:43.838Z,98833.40
2023-04-26T16:11:11.796Z,98833.80
2023-04-26T16:13:39.546Z,98832.20
2023-04-26T16:16:10.679Z,98833.20
2023-04-26T16:18:43.853Z,98833.80
2023-04-26T16:21:13.230Z,98833.80
2023-04-26T16:23:42.082Z,98840.80
2023-04-26T16:26:10.622Z,98838.60
2023-04-26T16:28:38.667Z,98842.40
2023-04-26T16:31:06.525Z,98847.60
2023-04-26T16:33:34.467Z,98851.20
2023-04-26T16:36:02.182Z,98851.20
2023-04-26T16:38:29.817Z,98851.20
2023-04-26T16:41:01.344Z,98853.20
2023-04-26T16:43:31.681Z,98853.80
2023-04-26T16:46:04.799Z,98859.80
2023-04-26T16:48:34.793Z,98857.60
2023-04-26T16:51:07.138Z,98865.00
2023-04-26T16:53:37.103Z,98867.00
2023-04-26T16:56:05.692Z,98873.20
2023-04-26T16:58:33.341Z,98864.40
2023-04-26T17:01:02.010Z,98864.20
2023-04-26T17:03:30.008Z,98870.20
2023-04-26T17:05:57.817Z,98867.20
2023-04-26T17:08:27.294Z,98869.00
2023-04-26T17:10:54.996Z,98872.20
2023-04-26T17:13:22.891Z,98877.40
2023-04-26T17:15:51.596Z,98876.20
2023-04-26T17:18:19.246Z,98881.80
2023-04-26T17:20:48.832Z,98879.00
2023-04-26T17:23:16.549Z,98889.00
2023-04-26T17:25:44.217Z,98889.40
2023-04-26T17:28:11.942Z,98895.40
2023-04-26T17:30:39.653Z,98895.60
2023-04-26T17:33:07.768Z,98895.20
2023-04-26T17:35:35.483Z,98905.60
2023-04-26T17:38:03.490Z,98902.00
2023-04-26T17:40:31.320Z,98906.60
2023-04-26T17:42:59.576Z,98913.20
2023-04-26T17:45:27.334Z,98918.60
2023-04-26T17:47:55.148Z,98920.80
2023-04-26T17:50:23.931Z,98921.20
2023-04-26T17:52:51.667Z,98923.60
2023-04-26T17:55:19.623Z,98922.00
2023-04-26T17:57:47.330Z,98923.60
2023-04-26T18:00:15.834Z,98924.80
2023-04-26T18:02:44.044Z,98927.20
2023-04-26T18:05:12.020Z,98930.20
2023-04-26T18:07:40.123Z,98933.40
2023-04-26T18:10:08.949Z,98937.00
2023-04-26T18:12:36.657Z,98943.40
2023-04-26T18:15:05.336Z,98946.80
2023-04-26T18:17:33.003Z,98946.40
2023-04-26T18:20:01.280Z,98953.20
2023-04-26T18:22:29.003Z,98952.80
2023-04-26T18:24:56.693Z,98956.20
2023-04-26T18:27:24.561Z,98955.00
2023-04-26T18:29:52.243Z,98957.80
2023-04-26T18:32:19.945Z,98960.60
2023-04-26T18:34:48.166Z,98961.20
2023-04-26T18:37:15.938Z,98967.80
2023-04-26T18:39:44.158Z,98967.00
2023-04-26T18:42:12.022Z,98972.80
2023-04-26T18:44:39.742Z,98977.20
2023-04-26T18:47:07.464Z,98978.60
2023-04-26T18:49:35.252Z,98983.20
2023-04-26T18:52:03.639Z,98987.40
2023-04-26T18:54:33.075Z,98983.80
2023-04-26T18:57:03.390Z,98987.00
2023-04-26T18:59:31.364Z,98988.80
2023-04-26T19:01:59.352Z,98990.60
2023-04-26T19:04:27.285Z,98990.60
2023-04-26T19:06:55.242Z,98989.60
2023-04-26T19:09:23.025Z,98987.40
2023-04-26T19:11:50.756Z,98996.40
2023-04-26T19:14:18.415Z,98996.40
2023-04-26T19:16:46.194Z,99002.20
2023-04-26T19:19:13.900Z,99003.80
2023-04-26T19:21:41.526Z,98998.20
2023-04-26T19:24:09.234Z,98995.60
2023-04-26T19:26:37.963Z,99002.40
2023-04-26T19:29:06.987Z,98999.80
2023-04-26T19:31:34.973Z,99004.60
2023-04-26T19:34:03.846Z,98999.00
2023-04-26T19:36:31.621Z,99005.20
2023-04-26T19:38:59.349Z,99007.20
2023-04-26T19:41:26.962Z,99007.40
2023-04-26T19:43:54.613Z,99008.60
2023-04-26T19:46:22.376Z,99007.80
2023-04-26T19:48:50.513Z,99005.20
2023-04-26T19:51:18.614Z,99010.20
2023-04-26T19:53:46.315Z,99012.40
2023-04-26T19:56:13.979Z,99006.60
2023-04-26T19:58:42.176Z,99005.00
2023-04-26T20:01:09.872Z,99006.20
2023-04-26T20:03:39.271Z,99009.80
2023-04-26T20:06:07.748Z,99014.80
2023-04-26T20:08:35.417Z,99018.20
2023-04-26T20:11:04.815Z,99021.40
2023-04-26T20:13:32.957Z,99020.80
2023-04-26T20:16:00.762Z,99017.60
2023-04-26T20:18:28.459Z,99023.80
2023-04-26T20:20:56.162Z,99030.20
2023-04-26T20:23:23.845Z,99022.80
2023-04-26T20:25:51.865Z,99028.80
2023-04-26T20:28:20.002Z,99026.80
2023-04-26T20:30:47.634Z,99031.60
2023-04-26T20:33:15.458Z,99031.20
2023-04-26T20:35:43.914Z,99029.40
2023-04-26T20:38:11.740Z,99025.60
2023-04-26T20:40:39.417Z,99031.00
2023-04-26T20:43:07.404Z,99029.20
2023-04-26T20:45:35.043Z,99028.80
2023-04-26T20:48:02.721Z,99031.20
2023-04-26T20:50:30.488Z,99034.40
2023-04-26T20:52:58.136Z,99038.80
2023-04-26T20:55:25.742Z,99039.20
2023-04-26T20:57:53.352Z,99038.00
2023-04-26T21:00:21.129Z,99036.60
2023-04-26T21:02:48.822Z,99036.80
2023-04-26T21:05:16.739Z,99035.00
2023-04-26T21:07:44.407Z,99038.00
2023-04-26T21:10:12.140Z,99034.00
2023-04-26T21:12:41.752Z,99042.40
2023-04-26T21:15:10.102Z,99046.60
2023-04-26T21:17:37.841Z,99047.80
2023-04-26T21:20:06.882Z,99051.20
2023-04-26T21:22:34.607Z,99052.80
2023-04-26T21:25:02.510Z,99059.40
2023-04-26T21:27:30.556Z,99058.00
2023-04-26T21:29:58.256Z,99061.60
2023-04-26T21:32:25.915Z,99061.80
2023-04-26T21:34:53.628Z,99065.80
2023-04-26T21:37:21.376Z,99060.80
2023-04-26T21:39:49.034Z,99062.00
2023-04-26T21:42:16.788Z,99060.60
2023-04-26T21:44:44.465Z,99061.60
2023-04-26T21:47:12.251Z,99062.80
2023-04-26T21:49:39.970Z,99066.20
2023-04-26T21:52:07.639Z,99072.40
2023-04-26T21:54:36.760Z,99067.40
2023-04-26T21:57:06.791Z,99075.60
2023-04-26T21:59:36.468Z,99076.00
2023-04-26T22:02:04.182Z,99082.60
2023-04-26T22:04:32.046Z,99086.60
2023-04-26T22:06:59.788Z,99088.80
2023-04-26T22:09:27.584Z,99095.60
2023-04-26T22:11:55.486Z,99098.00
2023-04-26T22:14:23.087Z,99097.80
2023-04-26T22:16:51.134Z,99102.60
2023-04-26T22:19:18.897Z,99101.60
2023-04-26T22:21:46.641Z,99107.60
2023-04-26T22:24:14.296Z,99107.60
2023-04-26T22:26:41.986Z,99111.40
2023-04-26T22:29:10.015Z,99108.60
2023-04-26T22:31:37.899Z,99111.60
2023-04-26T22:34:05.645Z,99108.60
2023-04-26T22:36:33.378Z,99116.00
2023-04-26T22:39:01.498Z,99116.00
2023-04-26T22:41:29.188Z,99123.00
2023-04-26T22:43:56.859Z,99117.40
2023-04-26T22:46:24.604Z,99119.20
2023-04-26T22:48:52.276Z,99115.00
2023-04-26T22:51:20.231Z,99116.60
2023-04-26T22:53:47.917Z,99121.40
2023-04-26T22:56:15.646Z,99120.80
2023-04-26T22:58:43.383Z,99122.20
2023-04-26T23:01:11.248Z,99122.80
2023-04-26T23:03:39.108Z,99128.40
2023-04-26T23:06:07.184Z,99121.40
2023-04-26T23:08:34.902Z,99125.00
2023-04-26T23:11:08.641Z,99126.60
2023-04-26T23:13:36.313Z,99125.40
2023-04-26T23:16:04.731Z,99129.40
2023-04-26T23:18:32.483Z,99131.00
2023-04-26T23:21:00.232Z,99129.20
2023-04-26T23:23:28.039Z,99132.20
2023-04-26T23:25:55.707Z,99130.20
2023-04-26T23:28:23.426Z,99135.00
2023-04-26T23:30:51.220Z,99132.80
2023-04-26T23:33:18.976Z,99131.80
2023-04-26T23:35:46.648Z,99134.20
2023-04-26T23:38:14.289Z,99142.40
2023-04-26T23:40:41.995Z,99139.80
2023-04-26T23:43:12.896Z,99138.60
2023-04-26T23:45:47.089Z,99141.60
2023-04-26T23:48:17.428Z,99142.60
2023-04-26T23:50:45.336Z,99143.60
2023-04-26T23:53:12.988Z,99141.80
2023-04-26T23:55:40.969Z,99142.80
2023-04-26T23:58:09.194Z,99145.20
